Aviation Digital Data Service (ADDS)

Output produced by METARs form (1108 UTC 22 November 2017)
found at http://aviationweather.gov/adds/metars/
 
KCRG 221039Z 2211/2306 VRB03KT 6SM BR FEW004 SCT020 SCT250 
     TEMPO 2211/2213 3SM BR SCT004 
     FM221400 04005KT P6SM SCT010 BKN025 OVC050